sensor_id;sensor_type;location;lat;lon;timestamp;P1;durP1;ratioP1;P2;durP2;ratioP2
59054;SDS011;44845;51.444;7.460;2023-02-03T00:01:16;17.08;;;13.38;;
59054;SDS011;44845;51.444;7.460;2023-02-03T00:03:42;17.30;;;12.90;;
59054;SDS011;44845;51.444;7.460;2023-02-03T00:06:07;15.77;;;12.30;;
59054;SDS011;44845;51.444;7.460;2023-02-03T00:08:33;14.70;;;11.52;;
59054;SDS011;44845;51.444;7.460;2023-02-03T00:11:00;17.20;;;12.98;;
59054;SDS011;44845;51.444;7.460;2023-02-03T00:13:25;15.85;;;11.13;;
59054;SDS011;44845;51.444;7.460;2023-02-03T00:15:51;13.50;;;11.57;;
59054;SDS011;44845;51.444;7.460;2023-02-03T00:18:16;16.35;;;11.95;;
59054;SDS011;44845;51.444;7.460;2023-02-03T00:20:42;18.10;;;11.43;;
59054;SDS011;44845;51.444;7.460;2023-02-03T00:23:08;17.67;;;11.65;;
59054;SDS011;44845;51.444;7.460;2023-02-03T00:25:36;19.20;;;11.40;;
59054;SDS011;44845;51.444;7.460;2023-02-03T00:28:02;18.58;;;12.07;;
59054;SDS011;44845;51.444;7.460;2023-02-03T00:30:28;15.63;;;12.52;;
59054;SDS011;44845;51.444;7.460;2023-02-03T00:32:53;18.20;;;12.40;;
59054;SDS011;44845;51.444;7.460;2023-02-03T00:35:19;19.80;;;11.32;;
59054;SDS011;44845;51.444;7.460;2023-02-03T00:37:49;13.45;;;11.15;;
59054;SDS011;44845;51.444;7.460;2023-02-03T00:40:16;12.55;;;10.80;;
59054;SDS011;44845;51.444;7.460;2023-02-03T00:42:41;17.02;;;11.20;;
59054;SDS011;44845;51.444;7.460;2023-02-03T00:45:07;14.40;;;10.68;;
59054;SDS011;44845;51.444;7.460;2023-02-03T00:47:33;19.77;;;10.55;;
59054;SDS011;44845;51.444;7.460;2023-02-03T00:49:58;14.52;;;10.60;;
59054;SDS011;44845;51.444;7.460;2023-02-03T00:52:23;15.70;;;10.68;;
59054;SDS011;44845;51.444;7.460;2023-02-03T00:54:48;19.65;;;10.98;;
59054;SDS011;44845;51.444;7.460;2023-02-03T00:57:14;16.17;;;10.63;;
59054;SDS011;44845;51.444;7.460;2023-02-03T00:59:39;15.63;;;10.23;;
59054;SDS011;44845;51.444;7.460;2023-02-03T01:02:04;18.50;;;10.45;;
59054;SDS011;44845;51.444;7.460;2023-02-03T01:04:30;20.60;;;11.30;;
59054;SDS011;44845;51.444;7.460;2023-02-03T01:06:55;20.10;;;10.98;;
59054;SDS011;44845;51.444;7.460;2023-02-03T01:09:22;19.20;;;10.95;;
59054;SDS011;44845;51.444;7.460;2023-02-03T01:11:48;16.23;;;10.32;;
59054;SDS011;44845;51.444;7.460;2023-02-03T01:14:13;16.75;;;10.57;;
59054;SDS011;44845;51.444;7.460;2023-02-03T01:16:38;17.50;;;11.60;;
59054;SDS011;44845;51.444;7.460;2023-02-03T01:19:04;15.40;;;10.88;;
59054;SDS011;44845;51.444;7.460;2023-02-03T01:21:30;16.92;;;10.80;;
59054;SDS011;44845;51.444;7.460;2023-02-03T01:23:55;17.33;;;10.85;;
59054;SDS011;44845;51.444;7.460;2023-02-03T01:26:22;21.85;;;11.48;;
59054;SDS011;44845;51.444;7.460;2023-02-03T01:28:55;14.00;;;10.10;;
59054;SDS011;44845;51.444;7.460;2023-02-03T01:33:50;17.77;;;10.20;;
59054;SDS011;44845;51.444;7.460;2023-02-03T01:36:18;19.92;;;11.05;;
59054;SDS011;44845;51.444;7.460;2023-02-03T01:38:44;19.05;;;12.02;;
59054;SDS011;44845;51.444;7.460;2023-02-03T01:41:11;19.50;;;11.70;;
59054;SDS011;44845;51.444;7.460;2023-02-03T01:43:41;16.67;;;10.82;;
59054;SDS011;44845;51.444;7.460;2023-02-03T01:48:58;16.25;;;10.45;;
59054;SDS011;44845;51.444;7.460;2023-02-03T01:51:25;15.10;;;10.38;;
59054;SDS011;44845;51.444;7.460;2023-02-03T01:53:51;17.40;;;11.20;;
59054;SDS011;44845;51.444;7.460;2023-02-03T01:56:18;15.27;;;10.90;;
59054;SDS011;44845;51.444;7.460;2023-02-03T01:58:44;19.45;;;11.57;;
59054;SDS011;44845;51.444;7.460;2023-02-03T02:01:11;14.85;;;10.93;;
59054;SDS011;44845;51.444;7.460;2023-02-03T02:03:43;19.13;;;11.07;;
59054;SDS011;44845;51.444;7.460;2023-02-03T02:06:14;19.20;;;11.52;;
59054;SDS011;44845;51.444;7.460;2023-02-03T02:08:40;14.80;;;11.13;;
59054;SDS011;44845;51.444;7.460;2023-02-03T02:11:08;15.38;;;10.95;;
59054;SDS011;44845;51.444;7.460;2023-02-03T02:13:34;15.82;;;10.55;;
59054;SDS011;44845;51.444;7.460;2023-02-03T02:16:11;14.13;;;11.23;;
59054;SDS011;44845;51.444;7.460;2023-02-03T02:18:49;17.25;;;10.07;;
59054;SDS011;44845;51.444;7.460;2023-02-03T02:24:27;19.17;;;10.23;;
59054;SDS011;44845;51.444;7.460;2023-02-03T02:27:08;15.07;;;10.32;;
59054;SDS011;44845;51.444;7.460;2023-02-03T02:29:59;14.07;;;9.52;;
59054;SDS011;44845;51.444;7.460;2023-02-03T02:46:07;15.65;;;8.63;;
59054;SDS011;44845;51.444;7.460;2023-02-03T02:51:13;15.63;;;8.57;;
59054;SDS011;44845;51.444;7.460;2023-02-03T02:53:42;16.98;;;9.25;;
59054;SDS011;44845;51.444;7.460;2023-02-03T02:56:13;10.05;;;8.30;;
59054;SDS011;44845;51.444;7.460;2023-02-03T02:58:40;13.73;;;8.63;;
59054;SDS011;44845;51.444;7.460;2023-02-03T03:01:11;13.32;;;8.32;;
59054;SDS011;44845;51.444;7.460;2023-02-03T03:03:37;10.70;;;8.75;;
59054;SDS011;44845;51.444;7.460;2023-02-03T03:06:28;16.02;;;8.80;;
59054;SDS011;44845;51.444;7.460;2023-02-03T03:08:57;14.98;;;8.52;;
59054;SDS011;44845;51.444;7.460;2023-02-03T03:11:27;10.85;;;8.32;;
59054;SDS011;44845;51.444;7.460;2023-02-03T03:13:56;16.70;;;8.60;;
59054;SDS011;44845;51.444;7.460;2023-02-03T03:16:22;13.90;;;8.13;;
59054;SDS011;44845;51.444;7.460;2023-02-03T03:19:04;11.70;;;8.07;;
59054;SDS011;44845;51.444;7.460;2023-02-03T03:21:38;11.07;;;7.65;;
59054;SDS011;44845;51.444;7.460;2023-02-03T03:24:09;11.82;;;7.50;;
59054;SDS011;44845;51.444;7.460;2023-02-03T03:26:40;12.00;;;7.68;;
59054;SDS011;44845;51.444;7.460;2023-02-03T03:29:29;16.58;;;7.68;;
59054;SDS011;44845;51.444;7.460;2023-02-03T03:31:56;11.90;;;7.45;;
59054;SDS011;44845;51.444;7.460;2023-02-03T03:34:22;8.85;;;7.32;;
59054;SDS011;44845;51.444;7.460;2023-02-03T03:37:00;10.77;;;7.30;;
59054;SDS011;44845;51.444;7.460;2023-02-03T03:39:44;13.40;;;7.20;;
59054;SDS011;44845;51.444;7.460;2023-02-03T03:44:50;10.13;;;6.72;;
59054;SDS011;44845;51.444;7.460;2023-02-03T03:47:33;11.80;;;6.05;;
59054;SDS011;44845;51.444;7.460;2023-02-03T03:50:00;12.00;;;5.90;;
59054;SDS011;44845;51.444;7.460;2023-02-03T03:52:30;11.85;;;5.70;;
59054;SDS011;44845;51.444;7.460;2023-02-03T03:54:59;9.95;;;5.90;;
59054;SDS011;44845;51.444;7.460;2023-02-03T04:00:19;13.25;;;5.57;;
59054;SDS011;44845;51.444;7.460;2023-02-03T04:02:49;11.35;;;5.10;;
59054;SDS011;44845;51.444;7.460;2023-02-03T04:05:18;11.32;;;4.68;;
59054;SDS011;44845;51.444;7.460;2023-02-03T04:07:45;6.78;;;4.55;;
59054;SDS011;44845;51.444;7.460;2023-02-03T04:10:15;12.35;;;4.75;;
59054;SDS011;44845;51.444;7.460;2023-02-03T04:12:46;7.85;;;4.68;;
59054;SDS011;44845;51.444;7.460;2023-02-03T04:15:11;12.88;;;4.68;;
59054;SDS011;44845;51.444;7.460;2023-02-03T04:17:36;8.05;;;4.18;;
59054;SDS011;44845;51.444;7.460;2023-02-03T04:20:03;6.25;;;4.28;;
59054;SDS011;44845;51.444;7.460;2023-02-03T04:22:28;9.35;;;4.53;;
59054;SDS011;44845;51.444;7.460;2023-02-03T04:24:54;6.07;;;4.32;;
59054;SDS011;44845;51.444;7.460;2023-02-03T04:27:22;9.00;;;5.22;;
59054;SDS011;44845;51.444;7.460;2023-02-03T04:29:49;8.70;;;4.50;;
59054;SDS011;44845;51.444;7.460;2023-02-03T04:32:14;12.07;;;4.70;;
59054;SDS011;44845;51.444;7.460;2023-02-03T04:34:40;11.55;;;4.80;;
59054;SDS011;44845;51.444;7.460;2023-02-03T04:37:05;12.73;;;5.38;;
59054;SDS011;44845;51.444;7.460;2023-02-03T04:39:30;8.52;;;4.57;;
59054;SDS011;44845;51.444;7.460;2023-02-03T04:41:56;7.63;;;4.63;;
59054;SDS011;44845;51.444;7.460;2023-02-03T04:44:21;9.68;;;4.70;;
59054;SDS011;44845;51.444;7.460;2023-02-03T04:46:46;12.23;;;4.75;;
59054;SDS011;44845;51.444;7.460;2023-02-03T04:49:12;11.50;;;4.75;;
59054;SDS011;44845;51.444;7.460;2023-02-03T04:51:37;5.50;;;4.18;;
59054;SDS011;44845;51.444;7.460;2023-02-03T04:54:02;7.53;;;4.32;;
59054;SDS011;44845;51.444;7.460;2023-02-03T04:56:28;8.75;;;4.40;;
59054;SDS011;44845;51.444;7.460;2023-02-03T04:58:53;7.03;;;4.65;;
59054;SDS011;44845;51.444;7.460;2023-02-03T05:01:18;7.25;;;4.50;;
59054;SDS011;44845;51.444;7.460;2023-02-03T05:03:44;9.10;;;4.85;;
59054;SDS011;44845;51.444;7.460;2023-02-03T05:06:09;7.57;;;4.32;;
59054;SDS011;44845;51.444;7.460;2023-02-03T05:08:35;9.10;;;4.65;;
59054;SDS011;44845;51.444;7.460;2023-02-03T05:11:00;9.23;;;4.35;;
59054;SDS011;44845;51.444;7.460;2023-02-03T05:13:26;8.98;;;4.80;;
59054;SDS011;44845;51.444;7.460;2023-02-03T05:15:51;9.65;;;4.78;;
59054;SDS011;44845;51.444;7.460;2023-02-03T05:18:16;9.38;;;4.05;;
59054;SDS011;44845;51.444;7.460;2023-02-03T05:20:42;7.20;;;4.20;;
59054;SDS011;44845;51.444;7.460;2023-02-03T05:23:07;5.95;;;4.47;;
59054;SDS011;44845;51.444;7.460;2023-02-03T05:25:32;6.20;;;4.53;;
59054;SDS011;44845;51.444;7.460;2023-02-03T05:27:58;8.57;;;4.13;;
59054;SDS011;44845;51.444;7.460;2023-02-03T05:30:23;10.63;;;4.47;;
59054;SDS011;44845;51.444;7.460;2023-02-03T05:32:48;8.15;;;4.13;;
59054;SDS011;44845;51.444;7.460;2023-02-03T05:35:14;7.57;;;4.80;;
59054;SDS011;44845;51.444;7.460;2023-02-03T05:37:39;9.45;;;4.18;;
59054;SDS011;44845;51.444;7.460;2023-02-03T05:40:05;8.98;;;4.60;;
59054;SDS011;44845;51.444;7.460;2023-02-03T05:42:49;7.05;;;4.00;;
59054;SDS011;44845;51.444;7.460;2023-02-03T05:45:15;6.63;;;3.90;;
59054;SDS011;44845;51.444;7.460;2023-02-03T05:47:41;8.13;;;3.50;;
59054;SDS011;44845;51.444;7.460;2023-02-03T05:50:06;8.40;;;3.70;;
59054;SDS011;44845;51.444;7.460;2023-02-03T05:52:32;9.20;;;3.90;;
59054;SDS011;44845;51.444;7.460;2023-02-03T05:54:57;7.60;;;4.03;;
59054;SDS011;44845;51.444;7.460;2023-02-03T05:57:23;8.65;;;3.90;;
59054;SDS011;44845;51.444;7.460;2023-02-03T05:59:48;6.50;;;3.28;;
59054;SDS011;44845;51.444;7.460;2023-02-03T06:02:13;13.02;;;4.43;;
59054;SDS011;44845;51.444;7.460;2023-02-03T06:04:39;7.43;;;4.15;;
59054;SDS011;44845;51.444;7.460;2023-02-03T06:07:05;7.45;;;3.30;;
59054;SDS011;44845;51.444;7.460;2023-02-03T06:09:33;6.93;;;3.75;;
59054;SDS011;44845;51.444;7.460;2023-02-03T06:11:58;7.72;;;3.30;;
59054;SDS011;44845;51.444;7.460;2023-02-03T06:14:23;9.50;;;3.20;;
59054;SDS011;44845;51.444;7.460;2023-02-03T06:16:49;8.07;;;3.90;;
59054;SDS011;44845;51.444;7.460;2023-02-03T06:19:14;13.50;;;3.70;;
59054;SDS011;44845;51.444;7.460;2023-02-03T06:21:39;7.90;;;3.13;;
59054;SDS011;44845;51.444;7.460;2023-02-03T06:24:05;8.40;;;3.78;;
59054;SDS011;44845;51.444;7.460;2023-02-03T06:26:30;9.45;;;3.47;;
59054;SDS011;44845;51.444;7.460;2023-02-03T06:28:56;9.30;;;3.17;;
59054;SDS011;44845;51.444;7.460;2023-02-03T06:31:21;7.25;;;4.00;;
59054;SDS011;44845;51.444;7.460;2023-02-03T06:33:46;10.63;;;3.85;;
59054;SDS011;44845;51.444;7.460;2023-02-03T06:36:12;7.47;;;3.25;;
59054;SDS011;44845;51.444;7.460;2023-02-03T06:38:37;8.45;;;3.20;;
59054;SDS011;44845;51.444;7.460;2023-02-03T06:41:02;8.32;;;3.38;;
59054;SDS011;44845;51.444;7.460;2023-02-03T06:43:28;7.07;;;3.13;;
59054;SDS011;44845;51.444;7.460;2023-02-03T06:45:53;14.45;;;3.63;;
59054;SDS011;44845;51.444;7.460;2023-02-03T06:48:19;6.88;;;3.28;;
59054;SDS011;44845;51.444;7.460;2023-02-03T06:50:44;8.82;;;3.22;;
59054;SDS011;44845;51.444;7.460;2023-02-03T06:53:09;6.85;;;2.80;;
59054;SDS011;44845;51.444;7.460;2023-02-03T06:55:35;7.72;;;3.00;;
59054;SDS011;44845;51.444;7.460;2023-02-03T06:58:00;8.10;;;2.72;;
59054;SDS011;44845;51.444;7.460;2023-02-03T07:00:26;8.40;;;3.08;;
59054;SDS011;44845;51.444;7.460;2023-02-03T07:02:55;5.03;;;3.05;;
59054;SDS011;44845;51.444;7.460;2023-02-03T07:05:22;5.88;;;2.70;;
59054;SDS011;44845;51.444;7.460;2023-02-03T07:07:48;5.28;;;2.70;;
59054;SDS011;44845;51.444;7.460;2023-02-03T07:10:14;5.10;;;2.50;;
59054;SDS011;44845;51.444;7.460;2023-02-03T07:12:40;4.65;;;2.60;;
59054;SDS011;44845;51.444;7.460;2023-02-03T07:15:05;7.78;;;2.92;;
59054;SDS011;44845;51.444;7.460;2023-02-03T07:17:31;8.25;;;2.80;;
59054;SDS011;44845;51.444;7.460;2023-02-03T07:19:56;5.47;;;2.78;;
59054;SDS011;44845;51.444;7.460;2023-02-03T07:22:22;5.53;;;3.10;;
59054;SDS011;44845;51.444;7.460;2023-02-03T07:24:48;8.45;;;3.30;;
59054;SDS011;44845;51.444;7.460;2023-02-03T07:27:13;6.22;;;3.38;;
59054;SDS011;44845;51.444;7.460;2023-02-03T07:29:38;5.68;;;3.28;;
59054;SDS011;44845;51.444;7.460;2023-02-03T07:32:04;11.32;;;3.67;;
59054;SDS011;44845;51.444;7.460;2023-02-03T07:34:29;8.40;;;3.63;;
59054;SDS011;44845;51.444;7.460;2023-02-03T07:36:55;6.93;;;3.47;;
59054;SDS011;44845;51.444;7.460;2023-02-03T07:39:21;7.90;;;3.53;;
59054;SDS011;44845;51.444;7.460;2023-02-03T07:41:46;9.98;;;3.95;;
59054;SDS011;44845;51.444;7.460;2023-02-03T07:44:12;9.85;;;4.30;;
59054;SDS011;44845;51.444;7.460;2023-02-03T07:46:37;9.05;;;3.95;;
59054;SDS011;44845;51.444;7.460;2023-02-03T07:49:08;5.38;;;3.97;;
59054;SDS011;44845;51.444;7.460;2023-02-03T07:51:37;8.02;;;4.00;;
59054;SDS011;44845;51.444;7.460;2023-02-03T07:54:03;8.30;;;4.10;;
59054;SDS011;44845;51.444;7.460;2023-02-03T07:56:28;9.65;;;3.80;;
59054;SDS011;44845;51.444;7.460;2023-02-03T07:58:54;9.50;;;4.57;;
59054;SDS011;44845;51.444;7.460;2023-02-03T08:01:20;9.45;;;3.80;;
59054;SDS011;44845;51.444;7.460;2023-02-03T08:03:45;12.07;;;3.63;;
59054;SDS011;44845;51.444;7.460;2023-02-03T08:06:11;6.15;;;3.25;;
59054;SDS011;44845;51.444;7.460;2023-02-03T08:08:36;6.65;;;3.95;;
59054;SDS011;44845;51.444;7.460;2023-02-03T08:11:01;7.55;;;3.85;;
59054;SDS011;44845;51.444;7.460;2023-02-03T08:13:27;9.48;;;3.80;;
59054;SDS011;44845;51.444;7.460;2023-02-03T08:15:52;7.22;;;4.00;;
59054;SDS011;44845;51.444;7.460;2023-02-03T08:18:18;9.60;;;4.05;;
59054;SDS011;44845;51.444;7.460;2023-02-03T08:20:45;6.75;;;3.85;;
59054;SDS011;44845;51.444;7.460;2023-02-03T08:23:10;7.25;;;3.60;;
59054;SDS011;44845;51.444;7.460;2023-02-03T08:25:36;12.40;;;3.83;;
59054;SDS011;44845;51.444;7.460;2023-02-03T08:28:01;6.03;;;3.75;;
59054;SDS011;44845;51.444;7.460;2023-02-03T08:30:27;10.77;;;4.45;;
59054;SDS011;44845;51.444;7.460;2023-02-03T08:32:52;6.63;;;4.53;;
59054;SDS011;44845;51.444;7.460;2023-02-03T08:35:17;9.18;;;4.90;;
59054;SDS011;44845;51.444;7.460;2023-02-03T08:37:43;7.53;;;4.32;;
59054;SDS011;44845;51.444;7.460;2023-02-03T08:40:09;8.23;;;4.22;;
59054;SDS011;44845;51.444;7.460;2023-02-03T08:42:35;8.45;;;4.18;;
59054;SDS011;44845;51.444;7.460;2023-02-03T08:45:00;10.60;;;4.22;;
59054;SDS011;44845;51.444;7.460;2023-02-03T08:47:25;7.20;;;4.15;;
59054;SDS011;44845;51.444;7.460;2023-02-03T08:49:51;8.07;;;4.32;;
59054;SDS011;44845;51.444;7.460;2023-02-03T08:52:17;6.45;;;3.97;;
59054;SDS011;44845;51.444;7.460;2023-02-03T08:54:43;8.90;;;4.25;;
59054;SDS011;44845;51.444;7.460;2023-02-03T08:57:08;10.02;;;5.18;;
59054;SDS011;44845;51.444;7.460;2023-02-03T08:59:34;6.95;;;4.15;;
59054;SDS011;44845;51.444;7.460;2023-02-03T09:02:02;6.75;;;4.43;;
59054;SDS011;44845;51.444;7.460;2023-02-03T09:04:28;5.82;;;4.13;;
59054;SDS011;44845;51.444;7.460;2023-02-03T09:06:54;8.70;;;4.38;;
59054;SDS011;44845;51.444;7.460;2023-02-03T09:09:19;12.93;;;4.57;;
59054;SDS011;44845;51.444;7.460;2023-02-03T09:11:45;7.60;;;4.18;;
59054;SDS011;44845;51.444;7.460;2023-02-03T09:14:11;6.78;;;4.55;;
59054;SDS011;44845;51.444;7.460;2023-02-03T09:16:36;6.57;;;4.22;;
59054;SDS011;44845;51.444;7.460;2023-02-03T09:19:02;7.32;;;4.25;;
59054;SDS011;44845;51.444;7.460;2023-02-03T09:21:27;6.70;;;4.20;;
59054;SDS011;44845;51.444;7.460;2023-02-03T09:23:52;8.65;;;4.53;;
59054;SDS011;44845;51.444;7.460;2023-02-03T09:26:18;9.18;;;4.60;;
59054;SDS011;44845;51.444;7.460;2023-02-03T09:28:44;8.40;;;4.10;;
59054;SDS011;44845;51.444;7.460;2023-02-03T09:31:11;10.65;;;5.25;;
59054;SDS011;44845;51.444;7.460;2023-02-03T09:33:37;8.32;;;4.53;;
59054;SDS011;44845;51.444;7.460;2023-02-03T09:36:03;9.70;;;5.13;;
59054;SDS011;44845;51.444;7.460;2023-02-03T09:38:30;11.85;;;4.90;;
59054;SDS011;44845;51.444;7.460;2023-02-03T09:40:58;11.85;;;5.43;;
59054;SDS011;44845;51.444;7.460;2023-02-03T09:48:47;8.50;;;4.95;;
59054;SDS011;44845;51.444;7.460;2023-02-03T09:51:46;8.40;;;5.82;;
59054;SDS011;44845;51.444;7.460;2023-02-03T09:54:18;9.80;;;5.60;;
59054;SDS011;44845;51.444;7.460;2023-02-03T09:56:47;8.85;;;5.20;;
59054;SDS011;44845;51.444;7.460;2023-02-03T09:59:16;8.18;;;5.38;;
59054;SDS011;44845;51.444;7.460;2023-02-03T10:01:44;9.77;;;5.88;;
59054;SDS011;44845;51.444;7.460;2023-02-03T10:07:06;10.23;;;5.97;;
59054;SDS011;44845;51.444;7.460;2023-02-03T10:17:27;15.23;;;6.93;;
59054;SDS011;44845;51.444;7.460;2023-02-03T10:22:35;14.73;;;6.55;;
59054;SDS011;44845;51.444;7.460;2023-02-03T10:25:06;11.30;;;7.15;;
59054;SDS011;44845;51.444;7.460;2023-02-03T10:27:39;10.48;;;7.07;;
59054;SDS011;44845;51.444;7.460;2023-02-03T10:32:38;13.38;;;6.80;;
59054;SDS011;44845;51.444;7.460;2023-02-03T10:35:09;12.10;;;6.65;;
59054;SDS011;44845;51.444;7.460;2023-02-03T10:37:37;14.65;;;9.10;;
59054;SDS011;44845;51.444;7.460;2023-02-03T10:40:11;11.18;;;6.13;;
59054;SDS011;44845;51.444;7.460;2023-02-03T10:42:38;13.85;;;6.10;;
59054;SDS011;44845;51.444;7.460;2023-02-03T10:45:22;11.63;;;6.03;;
59054;SDS011;44845;51.444;7.460;2023-02-03T10:47:49;10.75;;;5.88;;
59054;SDS011;44845;51.444;7.460;2023-02-03T10:52:44;10.88;;;5.93;;
59054;SDS011;44845;51.444;7.460;2023-02-03T10:57:50;9.90;;;6.45;;
59054;SDS011;44845;51.444;7.460;2023-02-03T11:02:41;12.82;;;6.28;;
59054;SDS011;44845;51.444;7.460;2023-02-03T11:05:17;13.02;;;6.47;;
59054;SDS011;44845;51.444;7.460;2023-02-03T11:07:43;10.55;;;6.35;;
59054;SDS011;44845;51.444;7.460;2023-02-03T11:13:19;8.57;;;5.97;;
59054;SDS011;44845;51.444;7.460;2023-02-03T11:18:24;10.10;;;5.47;;
59054;SDS011;44845;51.444;7.460;2023-02-03T11:21:05;11.27;;;5.88;;
59054;SDS011;44845;51.444;7.460;2023-02-03T11:24:01;8.30;;;5.90;;
59054;SDS011;44845;51.444;7.460;2023-02-03T11:26:32;11.70;;;5.40;;
59054;SDS011;44845;51.444;7.460;2023-02-03T11:29:13;11.10;;;5.93;;
59054;SDS011;44845;51.444;7.460;2023-02-03T11:31:42;10.23;;;5.85;;
59054;SDS011;44845;51.444;7.460;2023-02-03T11:34:15;11.10;;;5.93;;
59054;SDS011;44845;51.444;7.460;2023-02-03T11:36:43;9.18;;;5.45;;
59054;SDS011;44845;51.444;7.460;2023-02-03T11:39:16;12.00;;;5.65;;
59054;SDS011;44845;51.444;7.460;2023-02-03T11:41:44;11.50;;;5.90;;
59054;SDS011;44845;51.444;7.460;2023-02-03T11:44:10;12.90;;;5.50;;
59054;SDS011;44845;51.444;7.460;2023-02-03T11:46:40;9.90;;;5.30;;
59054;SDS011;44845;51.444;7.460;2023-02-03T11:54:58;11.70;;;5.03;;
59054;SDS011;44845;51.444;7.460;2023-02-03T12:00:28;10.32;;;4.93;;
59054;SDS011;44845;51.444;7.460;2023-02-03T12:03:08;14.02;;;4.70;;
59054;SDS011;44845;51.444;7.460;2023-02-03T12:18:57;9.48;;;3.78;;
59054;SDS011;44845;51.444;7.460;2023-02-03T12:21:52;8.70;;;4.03;;
59054;SDS011;44845;51.444;7.460;2023-02-03T12:30:20;10.32;;;3.63;;
59054;SDS011;44845;51.444;7.460;2023-02-03T12:32:52;6.60;;;3.10;;
59054;SDS011;44845;51.444;7.460;2023-02-03T12:35:27;11.88;;;2.95;;
59054;SDS011;44845;51.444;7.460;2023-02-03T12:40:59;7.05;;;3.50;;
59054;SDS011;44845;51.444;7.460;2023-02-03T12:43:41;10.52;;;3.28;;
59054;SDS011;44845;51.444;7.460;2023-02-03T12:51:32;9.95;;;4.45;;
59054;SDS011;44845;51.444;7.460;2023-02-03T12:54:00;12.27;;;3.60;;
59054;SDS011;44845;51.444;7.460;2023-02-03T12:56:35;12.48;;;3.70;;
59054;SDS011;44845;51.444;7.460;2023-02-03T12:59:24;5.82;;;2.88;;
59054;SDS011;44845;51.444;7.460;2023-02-03T13:01:57;5.93;;;3.00;;
59054;SDS011;44845;51.444;7.460;2023-02-03T13:04:35;14.93;;;3.78;;
59054;SDS011;44845;51.444;7.460;2023-02-03T13:07:09;10.23;;;3.17;;
59054;SDS011;44845;51.444;7.460;2023-02-03T13:12:29;7.95;;;3.17;;
59054;SDS011;44845;51.444;7.460;2023-02-03T13:15:01;9.55;;;2.92;;
59054;SDS011;44845;51.444;7.460;2023-02-03T13:18:12;9.35;;;2.70;;
59054;SDS011;44845;51.444;7.460;2023-02-03T13:20:50;7.88;;;3.10;;
59054;SDS011;44845;51.444;7.460;2023-02-03T13:23:17;12.88;;;3.55;;
59054;SDS011;44845;51.444;7.460;2023-02-03T13:31:40;8.13;;;2.80;;
59054;SDS011;44845;51.444;7.460;2023-02-03T13:39:59;9.23;;;2.63;;
59054;SDS011;44845;51.444;7.460;2023-02-03T13:42:45;6.78;;;2.50;;
59054;SDS011;44845;51.444;7.460;2023-02-03T13:48:17;14.98;;;2.45;;
59054;SDS011;44845;51.444;7.460;2023-02-03T13:50:47;12.45;;;2.67;;
59054;SDS011;44845;51.444;7.460;2023-02-03T13:53:20;10.68;;;2.75;;
59054;SDS011;44845;51.444;7.460;2023-02-03T13:56:00;15.57;;;2.60;;
59054;SDS011;44845;51.444;7.460;2023-02-03T13:58:29;9.30;;;2.65;;
59054;SDS011;44845;51.444;7.460;2023-02-03T14:01:01;9.07;;;2.90;;
59054;SDS011;44845;51.444;7.460;2023-02-03T14:03:49;13.13;;;2.50;;
59054;SDS011;44845;51.444;7.460;2023-02-03T14:09:02;16.45;;;2.70;;
59054;SDS011;44845;51.444;7.460;2023-02-03T14:11:45;12.45;;;2.85;;
59054;SDS011;44845;51.444;7.460;2023-02-03T14:24:13;15.82;;;2.72;;
59054;SDS011;44845;51.444;7.460;2023-02-03T14:26:41;20.58;;;2.95;;
59054;SDS011;44845;51.444;7.460;2023-02-03T14:29:09;18.80;;;3.00;;
59054;SDS011;44845;51.444;7.460;2023-02-03T14:37:12;14.27;;;2.70;;
59054;SDS011;44845;51.444;7.460;2023-02-03T14:39:41;15.18;;;2.40;;
59054;SDS011;44845;51.444;7.460;2023-02-03T14:42:24;14.20;;;2.72;;
59054;SDS011;44845;51.444;7.460;2023-02-03T14:52:46;18.10;;;2.90;;
59054;SDS011;44845;51.444;7.460;2023-02-03T14:58:13;17.02;;;3.63;;
59054;SDS011;44845;51.444;7.460;2023-02-03T15:00:46;18.45;;;2.90;;
59054;SDS011;44845;51.444;7.460;2023-02-03T15:03:15;18.95;;;3.58;;
59054;SDS011;44845;51.444;7.460;2023-02-03T15:05:47;21.52;;;3.38;;
59054;SDS011;44845;51.444;7.460;2023-02-03T15:11:20;19.45;;;2.92;;
59054;SDS011;44845;51.444;7.460;2023-02-03T15:13:49;18.85;;;3.15;;
59054;SDS011;44845;51.444;7.460;2023-02-03T15:16:17;12.77;;;2.67;;
59054;SDS011;44845;51.444;7.460;2023-02-03T15:18:44;20.98;;;3.65;;
59054;SDS011;44845;51.444;7.460;2023-02-03T15:21:13;19.50;;;3.17;;
59054;SDS011;44845;51.444;7.460;2023-02-03T15:23:42;16.25;;;3.25;;
59054;SDS011;44845;51.444;7.460;2023-02-03T15:26:16;18.50;;;2.97;;
59054;SDS011;44845;51.444;7.460;2023-02-03T15:28:45;14.98;;;3.38;;
59054;SDS011;44845;51.444;7.460;2023-02-03T15:31:18;18.75;;;3.08;;
59054;SDS011;44845;51.444;7.460;2023-02-03T15:34:05;14.20;;;3.25;;
59054;SDS011;44845;51.444;7.460;2023-02-03T15:36:42;17.67;;;3.15;;
59054;SDS011;44845;51.444;7.460;2023-02-03T15:41:57;10.85;;;2.63;;
59054;SDS011;44845;51.444;7.460;2023-02-03T15:44:27;14.30;;;2.83;;
59054;SDS011;44845;51.444;7.460;2023-02-03T15:46:53;19.73;;;3.65;;
59054;SDS011;44845;51.444;7.460;2023-02-03T15:49:31;19.10;;;3.42;;
59054;SDS011;44845;51.444;7.460;2023-02-03T15:54:39;18.70;;;2.88;;
59054;SDS011;44845;51.444;7.460;2023-02-03T15:57:14;16.83;;;2.80;;
59054;SDS011;44845;51.444;7.460;2023-02-03T15:59:45;17.13;;;3.28;;
59054;SDS011;44845;51.444;7.460;2023-02-03T16:02:28;23.70;;;2.90;;
59054;SDS011;44845;51.444;7.460;2023-02-03T16:04:57;15.57;;;2.67;;
59054;SDS011;44845;51.444;7.460;2023-02-03T16:07:29;17.33;;;4.35;;
59054;SDS011;44845;51.444;7.460;2023-02-03T16:09:55;18.50;;;3.25;;
59054;SDS011;44845;51.444;7.460;2023-02-03T16:12:26;14.90;;;3.15;;
59054;SDS011;44845;51.444;7.460;2023-02-03T16:14:56;15.65;;;3.28;;
59054;SDS011;44845;51.444;7.460;2023-02-03T16:17:30;18.27;;;3.47;;
59054;SDS011;44845;51.444;7.460;2023-02-03T16:25:17;16.63;;;3.20;;
59054;SDS011;44845;51.444;7.460;2023-02-03T16:27:53;18.23;;;2.90;;
59054;SDS011;44845;51.444;7.460;2023-02-03T16:30:39;24.17;;;3.58;;
59054;SDS011;44845;51.444;7.460;2023-02-03T16:33:45;17.42;;;2.65;;
59054;SDS011;44845;51.444;7.460;2023-02-03T16:36:29;23.40;;;3.05;;
59054;SDS011;44845;51.444;7.460;2023-02-03T16:39:13;16.40;;;3.27;;
59054;SDS011;44845;51.444;7.460;2023-02-03T16:41:59;16.98;;;3.35;;
59054;SDS011;44845;51.444;7.460;2023-02-03T16:44:43;21.83;;;3.47;;
59054;SDS011;44845;51.444;7.460;2023-02-03T16:50:13;16.50;;;2.80;;
59054;SDS011;44845;51.444;7.460;2023-02-03T16:53:00;16.20;;;3.30;;
59054;SDS011;44845;51.444;7.460;2023-02-03T16:55:25;20.65;;;3.65;;
59054;SDS011;44845;51.444;7.460;2023-02-03T16:57:50;14.75;;;2.67;;
59054;SDS011;44845;51.444;7.460;2023-02-03T17:00:16;15.52;;;2.80;;
59054;SDS011;44845;51.444;7.460;2023-02-03T17:02:44;20.60;;;3.33;;
59054;SDS011;44845;51.444;7.460;2023-02-03T17:05:09;23.98;;;3.60;;
59054;SDS011;44845;51.444;7.460;2023-02-03T17:07:35;20.38;;;3.90;;
59054;SDS011;44845;51.444;7.460;2023-02-03T17:10:00;21.13;;;4.20;;
59054;SDS011;44845;51.444;7.460;2023-02-03T17:12:25;17.95;;;3.17;;
59054;SDS011;44845;51.444;7.460;2023-02-03T17:14:54;16.83;;;3.25;;
59054;SDS011;44845;51.444;7.460;2023-02-03T17:17:21;21.65;;;3.75;;
59054;SDS011;44845;51.444;7.460;2023-02-03T17:19:46;19.63;;;3.30;;
59054;SDS011;44845;51.444;7.460;2023-02-03T17:22:12;17.52;;;3.15;;
59054;SDS011;44845;51.444;7.460;2023-02-03T17:24:37;20.80;;;3.38;;
59054;SDS011;44845;51.444;7.460;2023-02-03T17:27:03;14.82;;;2.30;;
59054;SDS011;44845;51.444;7.460;2023-02-03T17:29:28;19.45;;;3.50;;
59054;SDS011;44845;51.444;7.460;2023-02-03T17:31:53;17.08;;;3.30;;
59054;SDS011;44845;51.444;7.460;2023-02-03T17:34:19;17.63;;;3.67;;